Time;durP1;ratioP1;P1;durP2;ratioP2;P2;SDS_P1;SDS_P2;PMS_P1;PMS_P2;Temp;Humidity;BMP_temperature;BMP_pressure;BME280_temperature;BME280_humidity;BME280_pressure;Samples;Min_cycle;Max_cycle;Signal;HPM_P1;HPM_P2
2023/02/16 00:02:27;;;;;;;55.92;25.42;;;7.10;76.00;;;;;;9181088;19;20022;-65
2023/02/16 00:05:31;;;;;;;;;;;7.00;76.00;;;;;;9181983;19;20019;-64
2023/02/16 00:08:37;;;;;;;56.85;24.77;;;7.00;76.00;;;;;;9177858;19;20363;-63
2023/02/16 00:15:03;;;;;;;57.15;26.90;;;6.90;76.00;;;;;;9181999;19;20023;-64
2023/02/16 00:18:17;;;;;;;68.47;26.60;;;6.90;76.00;;;;;;9182128;19;20014;-63
2023/02/16 00:21:23;;;;;;;64.38;27.67;;;6.90;76.10;;;;;;9177791;19;20021;-66
2023/02/16 00:24:28;;;;;;;64.40;26.60;;;6.90;76.20;;;;;;9179955;19;20011;-64
2023/02/16 00:27:35;;;;;;;61.42;27.17;;;6.80;76.20;;;;;;9179992;19;20015;-65
2023/02/16 00:30:40;;;;;;;66.03;26.77;;;6.80;76.20;;;;;;9181886;19;20030;-65
2023/02/16 00:33:47;;;;;;;58.95;26.08;;;6.80;76.20;;;;;;9181251;19;20010;-63
2023/02/16 00:36:50;;;;;;;61.20;27.60;;;6.70;76.20;;;;;;9181768;19;20013;-65
2023/02/16 00:39:56;;;;;;;65.13;28.15;;;6.70;76.30;;;;;;9181744;19;20472;-65
2023/02/16 00:43:00;;;;;;;67.78;29.27;;;6.70;76.30;;;;;;9181211;19;20018;-64
2023/02/16 00:46:09;;;;;;;67.07;29.65;;;6.70;76.40;;;;;;9181352;19;20029;-66
2023/02/16 00:49:15;;;;;;;63.47;27.90;;;6.70;76.40;;;;;;9180012;19;20019;-62
2023/02/16 00:52:32;;;;;;;68.78;29.13;;;6.70;76.50;;;;;;9181766;19;20365;-65
2023/02/16 00:55:39;;;;;;;67.35;27.92;;;6.70;76.50;;;;;;9181179;19;20409;-64
2023/02/16 00:58:45;;;;;;;67.35;30.60;;;6.70;76.50;;;;;;9177992;19;20019;-62
2023/02/16 01:01:50;;;;;;;;;;;6.60;76.40;;;;;;9179641;19;20014;-63
2023/02/16 01:04:56;;;;;;;72.60;29.13;;;6.60;76.50;;;;;;9181316;19;19919;-62
2023/02/16 01:11:22;;;;;;;69.38;28.80;;;6.60;76.50;;;;;;9177858;19;20026;-65
2023/02/16 01:14:27;;;;;;;68.60;29.77;;;6.60;76.50;;;;;;9179983;19;20011;-63
2023/02/16 01:17:34;;;;;;;68.15;29.13;;;6.60;76.60;;;;;;9178656;19;20022;-63
2023/02/16 01:20:38;;;;;;;61.88;29.15;;;6.60;76.60;;;;;;9175786;19;20010;-62
2023/02/16 01:23:46;;;;;;;67.00;28.67;;;6.60;76.60;;;;;;9179809;19;20030;-63
2023/02/16 01:26:51;;;;;;;;;;;6.50;76.60;;;;;;9179525;19;20011;-64
2023/02/16 01:29:57;;;;;;;62.95;28.98;;;6.50;76.60;;;;;;9179758;19;19925;-63
2023/02/16 01:33:02;;;;;;;;;;;6.50;76.50;;;;;;9179025;19;20614;-64
2023/02/16 01:36:24;;;;;;;62.83;27.90;;;6.50;76.60;;;;;;9179470;19;19921;-64
2023/02/16 01:39:27;;;;;;;60.50;27.73;;;6.50;76.60;;;;;;9179726;19;20018;-65
2023/02/16 01:42:37;;;;;;;66.30;28.70;;;6.50;76.60;;;;;;9177384;19;20015;-65
2023/02/16 01:45:46;;;;;;;62.42;28.40;;;6.40;76.60;;;;;;9177880;19;20029;-63
2023/02/16 01:48:53;;;;;;;69.95;28.15;;;6.50;76.70;;;;;;9176131;19;20018;-63
2023/02/16 01:52:03;;;;;;;68.25;30.45;;;6.40;76.60;;;;;;9178909;19;20015;-64
2023/02/16 01:55:18;;;;;;;70.05;29.27;;;6.40;76.70;;;;;;9179112;19;20022;-63
2023/02/16 01:58:33;;;;;;;72.38;30.80;;;6.40;76.70;;;;;;9179696;19;20014;-64
2023/02/16 02:01:48;;;;;;;62.30;29.30;;;6.40;76.70;;;;;;9179112;19;20014;-63
2023/02/16 02:08:28;;;;;;;71.57;28.88;;;6.40;76.80;;;;;;9175695;19;20019;-63
2023/02/16 02:11:37;;;;;;;61.72;28.42;;;6.40;76.80;;;;;;9174621;19;20563;-64
2023/02/16 02:14:43;;;;;;;68.05;29.40;;;6.30;76.80;;;;;;9177903;19;20030;-65
2023/02/16 02:17:49;;;;;;;62.72;29.55;;;6.30;76.90;;;;;;9177535;19;20019;-65
2023/02/16 02:25:04;;;;;;;60.83;29.40;;;6.30;76.90;;;;;;9176507;19;20476;-64
2023/02/16 02:28:18;;;;;;;70.68;28.25;;;6.30;76.90;;;;;;9173685;19;20015;-64
2023/02/16 02:31:39;;;;;;;70.07;30.00;;;6.20;76.80;;;;;;9176051;19;20067;-66
2023/02/16 02:35:01;;;;;;;61.38;29.38;;;6.20;76.90;;;;;;9176331;19;20015;-65
2023/02/16 02:38:17;;;;;;;70.13;28.55;;;6.20;77.20;;;;;;9176029;19;20094;-64
2023/02/16 02:42:02;;;;;;;67.78;29.77;;;6.20;77.00;;;;;;9176409;19;20019;-64
2023/02/16 02:45:01;;;;;;;65.47;29.25;;;6.20;76.90;;;;;;9175016;19;20014;-64
2023/02/16 02:48:07;;;;;;;67.05;29.33;;;6.20;77.00;;;;;;9174364;19;20018;-64
2023/02/16 02:51:29;;;;;;;67.93;29.42;;;6.10;77.00;;;;;;9177095;19;20074;-64
2023/02/16 03:01:21;;;;;;;64.70;29.40;;;6.10;77.00;;;;;;9175705;19;20017;-64
2023/02/16 03:04:29;;;;;;;63.40;27.08;;;6.10;77.10;;;;;;9176391;19;20019;-64
2023/02/16 03:07:48;;;;;;;65.18;28.88;;;6.00;77.10;;;;;;9175133;19;20019;-64
2023/02/16 03:14:19;;;;;;;68.90;28.50;;;6.00;77.10;;;;;;9175941;19;20014;-64
2023/02/16 03:30:55;;;;;;;59.80;28.02;;;5.90;77.20;;;;;;9184647;19;20025;-65
2023/02/16 03:34:04;;;;;;;70.35;28.95;;;5.90;77.20;;;;;;9183710;19;20014;-64
2023/02/16 03:37:09;;;;;;;66.32;29.05;;;5.90;77.20;;;;;;9183692;19;20018;-65
2023/02/16 03:40:32;;;;;;;67.15;31.13;;;5.90;77.30;;;;;;9181071;19;20076;-64
2023/02/16 03:43:36;;;;;;;67.10;27.95;;;5.90;77.30;;;;;;9183405;19;20014;-64
2023/02/16 03:46:42;;;;;;;62.88;28.83;;;5.90;77.30;;;;;;9183283;19;20015;-64
2023/02/16 03:49:48;;;;;;;64.05;27.70;;;5.90;77.40;;;;;;9182763;19;20018;-64
2023/02/16 03:53:05;;;;;;;62.13;28.30;;;5.90;77.40;;;;;;9182998;19;20021;-64
2023/02/16 03:56:09;;;;;;;60.50;28.48;;;5.90;77.50;;;;;;9183336;19;20412;-63
2023/02/16 03:59:15;;;;;;;60.58;28.40;;;5.90;77.50;;;;;;9182524;19;20019;-62
2023/02/16 04:02:20;;;;;;;62.33;27.98;;;5.80;77.40;;;;;;9180759;19;20424;-64
2023/02/16 04:05:28;;;;;;;62.50;28.45;;;5.80;77.40;;;;;;9182603;19;20022;-64
2023/02/16 04:08:33;;;;;;;63.50;28.85;;;5.80;77.40;;;;;;9180376;19;20020;-64
2023/02/16 04:14:58;;;;;;;69.30;29.73;;;5.80;77.50;;;;;;9182409;19;20035;-64
2023/02/16 04:18:04;;;;;;;65.03;29.60;;;5.80;77.50;;;;;;9182018;19;20014;-64
2023/02/16 04:21:10;;;;;;;64.32;30.08;;;5.90;77.60;;;;;;9179152;19;20011;-64
2023/02/16 04:24:16;;;;;;;73.30;28.95;;;5.80;77.50;;;;;;9181887;19;20023;-64
2023/02/16 04:27:20;;;;;;;64.55;28.75;;;5.80;77.60;;;;;;9181389;19;20018;-63
2023/02/16 04:30:27;;;;;;;65.53;29.40;;;5.80;77.60;;;;;;9181896;19;20017;-63
2023/02/16 04:33:32;;;;;;;62.35;28.80;;;5.80;77.60;;;;;;9179016;19;20049;-64
2023/02/16 04:36:40;;;;;;;56.50;28.75;;;5.80;77.70;;;;;;9181031;19;20018;-64
2023/02/16 04:39:43;;;;;;;59.60;29.45;;;5.80;77.70;;;;;;9181873;19;20019;-64
2023/02/16 04:42:49;;;;;;;66.00;28.48;;;5.90;77.80;;;;;;9181528;19;20021;-65
2023/02/16 04:45:53;;;;;;;;;;;5.90;77.80;;;;;;9182396;19;20015;-64
2023/02/16 04:49:00;;;;;;;67.22;28.90;;;5.90;77.80;;;;;;9179846;19;19926;-64
2023/02/16 04:52:06;;;;;;;63.63;28.33;;;5.90;77.60;;;;;;9181346;19;20018;-64
2023/02/16 04:55:12;;;;;;;62.45;27.80;;;5.90;77.70;;;;;;9182369;19;20015;-64
2023/02/16 04:58:16;;;;;;;;;;;5.90;77.70;;;;;;9181999;19;20481;-64
2023/02/16 05:01:25;;;;;;;66.10;29.77;;;5.90;77.80;;;;;;9180939;19;19933;-64
2023/02/16 05:04:29;;;;;;;67.40;30.40;;;5.90;77.60;;;;;;9180568;19;20538;-64
2023/02/16 05:07:37;;;;;;;58.08;28.83;;;5.90;77.80;;;;;;9179968;19;20014;-64
2023/02/16 05:10:43;;;;;;;63.72;29.33;;;5.90;77.80;;;;;;9179457;19;20014;-64
2023/02/16 05:17:06;;;;;;;61.40;27.60;;;6.00;77.90;;;;;;9180240;19;20089;-65
2023/02/16 05:20:13;;;;;;;67.28;31.15;;;6.00;77.90;;;;;;9175901;19;20017;-64
2023/02/16 05:23:19;;;;;;;67.45;30.80;;;6.00;77.90;;;;;;9180324;19;20047;-64
2023/02/16 05:26:25;;;;;;;68.15;29.70;;;6.00;77.90;;;;;;9180688;19;20030;-64
2023/02/16 05:29:29;;;;;;;61.20;27.92;;;6.00;78.50;;;;;;9176475;19;20010;-64
2023/02/16 05:32:35;;;;;;;62.58;29.88;;;6.00;77.90;;;;;;9176351;19;20364;-64
2023/02/16 05:35:38;;;;;;;;;;;6.00;78.00;;;;;;9181507;19;20490;-65
2023/02/16 05:38:46;;;;;;;61.85;28.52;;;6.10;78.00;;;;;;9179971;19;20347;-64
2023/02/16 05:41:50;;;;;;;63.47;30.20;;;6.00;77.90;;;;;;9179609;19;20352;-64
2023/02/16 05:44:56;;;;;;;64.50;29.20;;;6.00;77.90;;;;;;9179001;19;20476;-64
2023/02/16 05:48:00;;;;;;;;;;;6.10;78.00;;;;;;9179306;19;20010;-64
2023/02/16 05:51:06;;;;;;;65.57;30.08;;;6.10;78.00;;;;;;9180660;19;19918;-64
2023/02/16 05:54:16;;;;;;;70.40;30.58;;;6.10;78.00;;;;;;9180193;19;20010;-64
2023/02/16 05:57:22;;;;;;;63.40;29.98;;;6.10;78.00;;;;;;9180161;19;20022;-64
2023/02/16 06:00:25;;;;;;;;;;;6.10;78.00;;;;;;9180142;19;20018;-64
2023/02/16 06:03:31;;;;;;;69.88;30.00;;;6.10;78.10;;;;;;9179247;19;19918;-64
2023/02/16 06:06:36;;;;;;;63.47;29.60;;;6.10;77.90;;;;;;9179151;19;20467;-64
2023/02/16 06:09:43;;;;;;;63.70;30.63;;;6.20;78.10;;;;;;9174817;19;20034;-64
2023/02/16 06:12:47;;;;;;;72.32;33.10;;;6.10;78.10;;;;;;9178591;19;20010;-65
2023/02/16 06:15:55;;;;;;;74.13;30.95;;;6.20;78.10;;;;;;9178423;19;20018;-64
2023/02/16 06:19:00;;;;;;;68.45;31.25;;;6.20;78.10;;;;;;9173931;19;20021;-65
2023/02/16 06:22:06;;;;;;;68.20;30.42;;;6.20;78.10;;;;;;9178118;19;20018;-63
2023/02/16 06:25:12;;;;;;;70.20;31.83;;;6.20;78.10;;;;;;9178311;19;20010;-62
2023/02/16 06:28:18;;;;;;;68.15;30.88;;;6.20;78.10;;;;;;9174106;19;20018;-65
2023/02/16 06:31:22;;;;;;;;;;;6.30;78.20;;;;;;9179012;19;20014;-63
2023/02/16 06:34:28;;;;;;;67.57;30.75;;;6.30;78.20;;;;;;9177418;19;19918;-65
2023/02/16 06:37:32;;;;;;;79.28;30.77;;;6.30;78.10;;;;;;9177754;19;20006;-63
2023/02/16 06:40:40;;;;;;;76.93;32.83;;;6.30;78.10;;;;;;9177722;19;20022;-63
2023/02/16 06:43:43;;;;;;;67.55;30.80;;;6.30;78.20;;;;;;9177248;19;20015;-64
2023/02/16 06:46:50;;;;;;;66.00;31.95;;;6.30;78.20;;;;;;9176972;19;20018;-65
2023/02/16 06:49:54;;;;;;;66.22;31.33;;;6.30;78.20;;;;;;9173944;19;20014;-64
2023/02/16 06:53:00;;;;;;;80.05;34.90;;;6.30;78.20;;;;;;9177766;19;20018;-65
2023/02/16 06:56:06;;;;;;;64.30;31.05;;;6.30;78.30;;;;;;9177247;19;20055;-64
2023/02/16 06:59:13;;;;;;;65.93;31.52;;;6.40;78.30;;;;;;9182393;19;20011;-64
2023/02/16 07:02:17;;;;;;;68.53;31.02;;;6.40;78.30;;;;;;9183087;19;20044;-64
2023/02/16 07:05:23;;;;;;;69.10;31.17;;;6.40;78.30;;;;;;9184003;19;20467;-64
2023/02/16 07:08:27;;;;;;;75.43;32.00;;;6.40;78.30;;;;;;9182453;19;20096;-64
2023/02/16 07:11:34;;;;;;;73.95;31.05;;;6.40;78.30;;;;;;9173650;19;20010;-64
2023/02/16 07:14:39;;;;;;;76.90;32.00;;;6.40;78.30;;;;;;9175460;19;20479;-63
2023/02/16 07:17:45;;;;;;;76.20;32.42;;;6.40;78.30;;;;;;9175622;19;20038;-64
2023/02/16 07:20:48;;;;;;;;;;;6.40;78.40;;;;;;9173620;19;20019;-64
2023/02/16 07:23:54;;;;;;;65.72;30.63;;;6.40;78.40;;;;;;9175198;19;19930;-64
2023/02/16 07:27:00;;;;;;;75.85;29.75;;;6.50;78.30;;;;;;9177865;19;20018;-64
2023/02/16 07:30:08;;;;;;;71.35;32.50;;;6.50;78.30;;;;;;9174522;19;20067;-63
2023/02/16 07:33:13;;;;;;;65.97;31.80;;;6.50;78.30;;;;;;9176611;19;20018;-64
2023/02/16 07:36:19;;;;;;;71.38;31.98;;;6.50;78.40;;;;;;9181108;19;20018;-64
2023/02/16 07:39:23;;;;;;;75.35;30.85;;;6.50;78.40;;;;;;9183166;19;20093;-63
2023/02/16 07:42:33;;;;;;;65.80;30.85;;;6.50;78.40;;;;;;9182310;19;20025;-64
2023/02/16 07:45:37;;;;;;;68.95;31.60;;;6.50;78.40;;;;;;9181964;19;20031;-64
2023/02/16 07:48:43;;;;;;;69.68;31.10;;;6.50;78.40;;;;;;9182108;19;20013;-63
2023/02/16 07:51:46;;;;;;;;;;;6.60;78.50;;;;;;9181099;19;20018;-64
2023/02/16 07:54:52;;;;;;;61.75;27.92;;;6.60;78.40;;;;;;9183042;19;19915;-65
2023/02/16 07:57:58;;;;;;;66.03;29.58;;;6.60;78.30;;;;;;9182984;19;20018;-65
2023/02/16 08:01:10;;;;;;;60.17;27.92;;;6.60;78.40;;;;;;9182834;19;20018;-65
2023/02/16 08:04:14;;;;;;;62.55;29.67;;;6.60;78.40;;;;;;9177544;19;20521;-64
2023/02/16 08:07:20;;;;;;;64.35;29.75;;;6.70;78.50;;;;;;9182533;19;20479;-64
2023/02/16 08:10:24;;;;;;;63.58;30.00;;;6.70;78.50;;;;;;9180815;19;20015;-64
2023/02/16 08:13:32;;;;;;;56.97;27.80;;;6.70;78.50;;;;;;9175813;19;20021;-64
2023/02/16 08:16:36;;;;;;;64.13;30.63;;;6.70;78.60;;;;;;9174437;19;20037;-65
2023/02/16 08:19:42;;;;;;;65.18;29.08;;;6.80;78.60;;;;;;9171982;19;20010;-63
2023/02/16 08:22:46;;;;;;;69.50;29.17;;;6.80;78.60;;;;;;9174997;19;20026;-64
2023/02/16 08:25:52;;;;;;;61.35;29.15;;;6.80;78.60;;;;;;9177728;19;20014;-63
2023/02/16 08:29:00;;;;;;;61.22;29.60;;;6.80;78.60;;;;;;9179138;19;20014;-65
2023/02/16 08:32:07;;;;;;;62.92;28.60;;;6.80;78.60;;;;;;9176308;19;20023;-63
2023/02/16 08:35:11;;;;;;;62.75;28.80;;;6.80;78.60;;;;;;9180499;19;20074;-65
2023/02/16 08:38:17;;;;;;;61.58;28.23;;;6.80;78.60;;;;;;9179116;19;20636;-64
2023/02/16 08:41:25;;;;;;;52.42;27.15;;;6.90;78.70;;;;;;9178729;19;20042;-64
2023/02/16 08:44:33;;;;;;;59.25;28.67;;;6.90;78.70;;;;;;9181204;19;20025;-65
2023/02/16 08:47:36;;;;;;;61.78;28.65;;;6.90;78.70;;;;;;9178228;19;20018;-65
2023/02/16 08:50:45;;;;;;;61.22;29.27;;;7.00;78.70;;;;;;9171104;19;20014;-64
2023/02/16 08:53:51;;;;;;;61.78;28.40;;;7.00;78.70;;;;;;9169645;19;20046;-65
2023/02/16 08:56:58;;;;;;;60.63;28.35;;;7.00;78.70;;;;;;9170754;19;20081;-64
2023/02/16 09:03:25;;;;;;;57.20;26.23;;;7.00;78.70;;;;;;9171972;19;20010;-64
2023/02/16 09:06:28;;;;;;;57.85;28.52;;;7.10;78.80;;;;;;9173472;19;20460;-65
2023/02/16 09:09:34;;;;;;;73.18;29.63;;;7.10;78.80;;;;;;9170223;19;20455;-65
2023/02/16 09:12:38;;;;;;;64.40;27.77;;;7.10;78.80;;;;;;9169601;19;20014;-65
2023/02/16 09:15:46;;;;;;;63.72;28.30;;;7.20;78.80;;;;;;9171524;19;20026;-65
2023/02/16 09:18:51;;;;;;;57.55;27.88;;;7.20;78.80;;;;;;9169544;19;20010;-64
2023/02/16 09:21:57;;;;;;;59.97;27.67;;;7.20;78.80;;;;;;9169283;19;20014;-65
2023/02/16 09:25:01;;;;;;;55.92;25.33;;;7.30;78.80;;;;;;9174414;19;20015;-66
2023/02/16 09:28:08;;;;;;;62.35;29.15;;;7.30;78.80;;;;;;9178253;19;20015;-64
2023/02/16 09:31:16;;;;;;;62.33;26.90;;;7.40;78.80;;;;;;9178683;19;20388;-64
2023/02/16 09:34:24;;;;;;;54.92;26.08;;;7.40;78.80;;;;;;9175426;19;20006;-65
2023/02/16 09:37:30;;;;;;;50.90;25.60;;;7.40;78.80;;;;;;9171507;19;20018;-62
2023/02/16 09:40:37;;;;;;;59.20;26.50;;;7.50;78.90;;;;;;9178751;19;20022;-64
2023/02/16 09:43:50;;;;;;;51.60;27.38;;;7.50;78.90;;;;;;9177639;19;20022;-65
2023/02/16 09:47:02;;;;;;;51.95;26.65;;;7.60;78.90;;;;;;9166832;19;20010;-65
2023/02/16 09:50:14;;;;;;;58.63;27.55;;;7.50;78.90;;;;;;9155515;19;20029;-65
2023/02/16 09:53:22;;;;;;;;;;;7.60;78.90;;;;;;9163192;19;20014;-65
2023/02/16 09:56:31;;;;;;;60.45;27.70;;;7.70;79.00;;;;;;9163537;19;19922;-65
2023/02/16 09:59:49;;;;;;;56.65;26.52;;;7.70;78.80;;;;;;9161215;19;20021;-64
2023/02/16 10:03:00;;;;;;;54.60;26.52;;;7.70;78.90;;;;;;9158264;19;20054;-65
2023/02/16 10:06:23;;;;;;;53.03;21.43;;;7.80;79.10;;;;;;9158829;19;20444;-65
2023/02/16 10:09:29;;;;;;;56.58;27.42;;;7.80;78.90;;;;;;9157595;19;20496;-65
2023/02/16 10:12:40;;;;;;;54.55;26.75;;;7.80;78.80;;;;;;9154402;19;20018;-64
2023/02/16 10:15:46;;;;;;;61.13;28.45;;;7.90;78.90;;;;;;9161397;19;20025;-65
2023/02/16 10:18:56;;;;;;;60.50;29.05;;;7.90;78.90;;;;;;9160832;19;20045;-64
2023/02/16 10:22:06;;;;;;;57.42;27.88;;;7.90;78.90;;;;;;9165981;19;20022;-66
2023/02/16 10:25:16;;;;;;;58.85;27.77;;;8.00;78.90;;;;;;9166484;19;20022;-65
2023/02/16 10:28:22;;;;;;;57.25;27.92;;;8.00;78.90;;;;;;9163846;19;20018;-64
2023/02/16 10:31:34;;;;;;;56.92;27.75;;;8.10;78.90;;;;;;9165450;19;20038;-65
2023/02/16 10:34:50;;;;;;;59.28;28.13;;;8.10;78.90;;;;;;9161938;19;20025;-64
2023/02/16 10:38:05;;;;;;;57.42;28.20;;;8.20;79.00;;;;;;9166278;19;20022;-65
2023/02/16 10:41:24;;;;;;;60.58;28.27;;;8.20;78.90;;;;;;9165933;19;20769;-64
2023/02/16 10:44:36;;;;;;;60.42;28.75;;;8.20;78.90;;;;;;9164422;19;20009;-66
2023/02/16 10:47:42;;;;;;;63.35;27.95;;;8.30;79.00;;;;;;9166498;19;20026;-66
2023/02/16 10:50:58;;;;;;;56.60;29.52;;;8.30;79.00;;;;;;9168369;19;20372;-65
2023/02/16 10:54:07;;;;;;;61.28;31.73;;;8.30;79.00;;;;;;9169501;19;20018;-64
2023/02/16 10:57:26;;;;;;;64.88;30.50;;;8.30;79.00;;;;;;9166346;19;20021;-65
2023/02/16 11:00:43;;;;;;;65.72;29.33;;;8.40;79.10;;;;;;9161536;19;20023;-64
2023/02/16 11:03:51;;;;;;;65.32;30.30;;;8.40;79.10;;;;;;9164913;19;20010;-65
2023/02/16 11:07:07;;;;;;;66.25;30.73;;;8.50;79.20;;;;;;9159753;19;20015;-65
2023/02/16 11:10:21;;;;;;;60.38;29.00;;;8.50;79.30;;;;;;9162207;19;20014;-63
2023/02/16 11:13:30;;;;;;;62.08;29.45;;;8.50;79.30;;;;;;9168443;19;20029;-65
2023/02/16 11:16:36;;;;;;;63.45;29.80;;;8.50;79.30;;;;;;9160748;19;20026;-65
2023/02/16 11:19:42;;;;;;;58.95;30.23;;;8.60;79.30;;;;;;9159593;19;20492;-62
2023/02/16 11:22:50;;;;;;;61.30;29.92;;;8.60;79.30;;;;;;9166166;19;20018;-65
2023/02/16 11:25:56;;;;;;;60.58;31.85;;;8.60;79.40;;;;;;9167808;19;20045;-65
2023/02/16 11:29:17;;;;;;;61.40;29.17;;;8.70;79.50;;;;;;9165853;19;20018;-64
2023/02/16 11:32:22;;;;;;;63.05;28.90;;;8.70;79.50;;;;;;9175030;19;20475;-64
2023/02/16 11:35:30;;;;;;;64.28;30.17;;;8.80;79.60;;;;;;9169484;19;20021;-65
2023/02/16 11:38:37;;;;;;;62.50;28.85;;;8.80;79.50;;;;;;9166702;19;20022;-65
2023/02/16 11:41:45;;;;;;;61.13;30.50;;;8.80;79.60;;;;;;9167989;19;20014;-66
2023/02/16 11:44:54;;;;;;;64.63;29.08;;;8.90;79.60;;;;;;9173430;19;20015;-62
2023/02/16 11:48:02;;;;;;;65.28;30.23;;;8.90;79.60;;;;;;9177047;19;20010;-65
2023/02/16 11:51:08;;;;;;;69.13;30.05;;;8.90;79.60;;;;;;9175008;19;20047;-65
2023/02/16 11:54:19;;;;;;;69.10;29.77;;;8.90;79.60;;;;;;9175539;19;20010;-67
2023/02/16 11:57:28;;;;;;;77.22;30.38;;;8.90;79.60;;;;;;9175382;19;20015;-65
2023/02/16 12:00:34;;;;;;;66.65;29.73;;;9.00;79.70;;;;;;9173024;19;20029;-65
2023/02/16 12:04:06;;;;;;;67.82;30.92;;;9.00;79.60;;;;;;9173798;19;20117;-66
2023/02/16 12:07:21;;;;;;;71.85;30.52;;;9.00;79.70;;;;;;9174666;19;20029;-64
2023/02/16 12:10:35;;;;;;;66.57;30.20;;;9.00;79.60;;;;;;9170598;19;20032;-63
2023/02/16 12:13:48;;;;;;;61.90;29.67;;;9.00;79.60;;;;;;9171376;19;20010;-66
2023/02/16 12:17:01;;;;;;;74.15;31.90;;;9.00;79.60;;;;;;9174243;19;20023;-64
2023/02/16 12:20:23;;;;;;;67.13;31.48;;;9.00;79.70;;;;;;9170632;19;20018;-64
2023/02/16 12:23:37;;;;;;;67.63;31.52;;;9.00;79.80;;;;;;9173207;19;20043;-65
2023/02/16 12:26:50;;;;;;;74.40;32.42;;;9.00;79.80;;;;;;9178688;19;20019;-65
2023/02/16 12:30:01;;;;;;;69.47;30.83;;;9.00;79.80;;;;;;9177389;19;20022;-63
2023/02/16 12:33:24;;;;;;;72.93;33.53;;;9.00;79.90;;;;;;9171659;19;20017;-64
2023/02/16 12:36:47;;;;;;;65.78;31.20;;;9.00;80.00;;;;;;9049782;19;2004243;-64
2023/02/16 12:40:02;;;;;;;68.40;33.33;;;9.00;80.10;;;;;;9175878;19;20018;-64
2023/02/16 12:43:33;;;;;;;75.30;33.67;;;9.00;80.10;;;;;;9171217;19;20010;-63
2023/02/16 12:46:43;;;;;;;65.60;30.33;;;9.00;80.20;;;;;;9173561;19;20011;-65
2023/02/16 12:49:54;;;;;;;66.78;31.17;;;9.10;80.20;;;;;;9169011;19;20014;-63
2023/02/16 12:53:06;;;;;;;67.35;31.25;;;9.10;80.20;;;;;;9171554;19;20021;-66
2023/02/16 12:56:17;;;;;;;68.47;32.90;;;9.10;80.30;;;;;;9171012;19;20015;-66
2023/02/16 12:59:32;;;;;;;76.47;34.87;;;9.10;80.30;;;;;;9173274;19;20034;-64
2023/02/16 13:02:41;;;;;;;67.65;32.53;;;9.20;80.40;;;;;;9172909;19;20022;-65
2023/02/16 13:05:54;;;;;;;66.32;32.53;;;9.20;80.40;;;;;;9173345;19;20011;-66
2023/02/16 13:09:07;;;;;;;68.85;32.03;;;9.20;80.50;;;;;;9172001;19;20574;-65
2023/02/16 13:12:21;;;;;;;70.07;33.67;;;9.20;80.50;;;;;;9169363;19;20445;-66
2023/02/16 13:15:35;;;;;;;74.45;33.50;;;9.20;80.50;;;;;;9171657;19;20086;-66
2023/02/16 13:18:45;;;;;;;73.88;34.58;;;9.20;80.60;;;;;;9168721;19;20664;-63
2023/02/16 13:22:21;;;;;;;71.40;33.63;;;9.30;80.70;;;;;;9170331;19;20097;-65
2023/02/16 13:25:45;;;;;;;73.38;32.97;;;9.30;80.80;;;;;;9171821;19;20029;-63
2023/02/16 13:29:22;;;;;;;72.15;33.90;;;9.30;80.80;;;;;;9171356;19;20158;-65
2023/02/16 13:32:52;;;;;;;75.47;33.65;;;9.30;80.80;;;;;;9173169;19;20285;-65
2023/02/16 13:36:12;;;;;;;73.57;34.08;;;9.30;80.80;;;;;;9170802;19;20014;-66
2023/02/16 13:39:42;;;;;;;73.05;33.72;;;9.40;80.80;;;;;;9171113;19;20479;-65
2023/02/16 13:43:19;;;;;;;70.03;33.92;;;9.40;81.50;;;;;;9178807;19;20015;-66
2023/02/16 13:46:31;;;;;;;74.38;35.22;;;9.40;81.00;;;;;;9178170;19;20034;-65
2023/02/16 13:49:41;;;;;;;64.03;32.92;;;9.50;80.90;;;;;;9176596;19;20409;-65
2023/02/16 13:52:48;;;;;;;64.90;31.92;;;9.50;81.00;;;;;;9178344;19;20483;-65
2023/02/16 13:56:16;;;;;;;65.53;32.80;;;9.50;80.90;;;;;;9177814;19;20034;-66
2023/02/16 13:59:57;;;;;;;64.88;34.88;;;9.60;81.20;;;;;;9178410;19;20483;-65
2023/02/16 14:03:03;;;;;;;72.05;33.25;;;9.60;81.10;;;;;;9177303;19;20032;-65
2023/02/16 14:06:35;;;;;;;63.28;32.08;;;9.60;81.00;;;;;;9177284;19;20017;-65
2023/02/16 14:09:49;;;;;;;65.25;35.00;;;9.70;81.20;;;;;;9176028;19;20018;-66
2023/02/16 14:12:55;;;;;;;62.88;32.58;;;9.70;81.20;;;;;;9177495;19;20011;-65
2023/02/16 14:16:00;;;;;;;;;;;9.80;81.80;;;;;;9177124;19;20018;-66
2023/02/16 14:19:19;;;;;;;66.63;30.70;;;9.80;81.20;;;;;;9172635;19;19922;-66
2023/02/16 14:22:33;;;;;;;62.65;32.75;;;9.90;81.10;;;;;;9177976;19;20014;-65
2023/02/16 14:25:41;;;;;;;59.50;30.48;;;9.90;81.20;;;;;;9177699;19;20014;-66
2023/02/16 14:29:03;;;;;;;63.33;31.80;;;9.90;81.10;;;;;;9176804;19;20010;-65
2023/02/16 14:32:27;;;;;;;66.43;32.22;;;10.00;81.30;;;;;;9176781;19;20015;-63
2023/02/16 14:35:34;;;;;;;58.58;30.35;;;10.00;81.30;;;;;;9177218;19;20361;-65
2023/02/16 14:38:46;;;;;;;56.22;29.42;;;10.00;81.20;;;;;;9174499;19;20021;-65
2023/02/16 14:41:50;;;;;;;54.95;28.23;;;10.10;81.30;;;;;;9175507;19;20022;-65
2023/02/16 14:45:09;;;;;;;52.97;29.63;;;10.10;81.20;;;;;;9177056;19;20010;-65
2023/02/16 14:48:28;;;;;;;53.90;28.58;;;10.10;81.30;;;;;;9176314;19;20019;-66
2023/02/16 14:51:59;;;;;;;54.65;28.00;;;10.20;81.30;;;;;;9176524;19;20022;-66
2023/02/16 14:55:40;;;;;;;51.83;27.30;;;10.20;81.40;;;;;;9176175;19;20019;-67
2023/02/16 14:58:56;;;;;;;52.38;27.52;;;10.20;81.40;;;;;;9176410;19;20029;-66
2023/02/16 15:02:00;;;;;;;55.55;27.98;;;10.20;81.30;;;;;;9176023;19;20014;-65
2023/02/16 15:05:17;;;;;;;49.13;26.67;;;10.30;81.30;;;;;;9175554;19;20010;-67
2023/02/16 15:08:23;;;;;;;57.22;26.80;;;10.30;81.40;;;;;;9173881;19;20463;-65
2023/02/16 15:11:34;;;;;;;52.47;26.27;;;10.30;81.30;;;;;;9171863;19;20121;-66
2023/02/16 15:14:43;;;;;;;52.42;27.33;;;10.30;81.30;;;;;;9174956;19;20382;-63
2023/02/16 15:17:51;;;;;;;58.03;28.95;;;10.30;81.40;;;;;;9174794;19;20014;-65
2023/02/16 15:20:59;;;;;;;47.30;25.98;;;10.30;81.30;;;;;;9177428;19;20011;-65
2023/02/16 15:24:06;;;;;;;46.70;25.75;;;10.40;81.40;;;;;;9182322;19;20030;-65
2023/02/16 15:27:22;;;;;;;51.95;26.27;;;10.40;81.40;;;;;;9180789;19;20031;-65
2023/02/16 15:30:30;;;;;;;51.97;26.27;;;10.40;81.40;;;;;;9181095;19;20010;-65
2023/02/16 15:33:37;;;;;;;49.42;25.23;;;10.40;81.40;;;;;;9182740;19;20452;-64
2023/02/16 15:36:45;;;;;;;47.47;25.27;;;10.40;81.40;;;;;;9182729;19;20014;-66
2023/02/16 15:39:49;;;;;;;47.92;25.13;;;10.40;81.40;;;;;;9181511;19;20102;-65
2023/02/16 15:43:31;;;;;;;41.50;23.90;;;10.40;81.40;;;;;;9182890;19;20018;-65
2023/02/16 15:46:37;;;;;;;49.67;25.17;;;10.40;81.40;;;;;;9182835;19;20022;-64
2023/02/16 15:49:43;;;;;;;46.25;24.88;;;10.40;81.40;;;;;;9174482;19;20010;-65
2023/02/16 15:52:48;;;;;;;45.55;23.80;;;10.40;81.40;;;;;;9181127;19;20511;-64
2023/02/16 15:55:54;;;;;;;45.58;23.25;;;10.40;81.50;;;;;;9179819;19;20052;-65
2023/02/16 15:59:02;;;;;;;44.53;24.13;;;10.40;81.50;;;;;;9180052;19;20545;-65
2023/02/16 16:02:14;;;;;;;49.38;25.00;;;10.40;81.50;;;;;;9179489;19;20014;-68
2023/02/16 16:05:24;;;;;;;44.97;24.35;;;10.40;81.50;;;;;;9180233;19;20058;-65
2023/02/16 16:08:31;;;;;;;45.67;24.75;;;10.40;81.60;;;;;;9178642;19;20018;-65
2023/02/16 16:11:36;;;;;;;47.15;23.70;;;10.40;82.10;;;;;;9175678;19;20025;-64
2023/02/16 16:14:51;;;;;;;44.42;23.60;;;10.40;81.60;;;;;;9179703;19;20030;-64
2023/02/16 16:17:59;;;;;;;45.03;23.23;;;10.40;81.70;;;;;;9179728;19;20115;-65
2023/02/16 16:21:18;;;;;;;48.72;22.98;;;10.40;81.60;;;;;;9174935;19;20019;-65
2023/02/16 16:24:37;;;;;;;44.28;21.95;;;10.40;81.70;;;;;;9178749;19;20508;-66
2023/02/16 16:27:48;;;;;;;45.00;23.58;;;10.40;81.70;;;;;;9177290;19;20025;-65
2023/02/16 16:31:07;;;;;;;41.38;21.35;;;10.40;81.70;;;;;;9175494;19;20014;-64
2023/02/16 16:34:32;;;;;;;43.50;23.25;;;10.40;81.80;;;;;;9180324;19;20014;-65
2023/02/16 16:37:37;;;;;;;46.78;22.95;;;10.30;81.70;;;;;;9174912;19;20027;-66
2023/02/16 16:40:43;;;;;;;43.22;23.10;;;10.30;81.70;;;;;;9173728;19;20050;-66
2023/02/16 16:43:54;;;;;;;40.90;23.63;;;10.30;81.70;;;;;;9172753;19;20364;-64
2023/02/16 16:47:21;;;;;;;48.83;23.50;;;10.40;81.90;;;;;;9168857;19;20022;-65
2023/02/16 16:50:34;;;;;;;43.25;22.73;;;10.30;81.80;;;;;;9164460;19;20957;-64
2023/02/16 16:53:43;;;;;;;48.58;21.35;;;10.30;81.80;;;;;;9166448;19;20480;-67
2023/02/16 16:56:47;;;;;;;44.17;23.92;;;10.30;81.70;;;;;;9168222;19;20022;-65
2023/02/16 16:59:53;;;;;;;42.08;22.80;;;10.30;81.70;;;;;;9166629;19;20015;-66
2023/02/16 17:02:59;;;;;;;43.83;23.15;;;10.30;81.80;;;;;;9164570;19;20038;-66
2023/02/16 17:06:07;;;;;;;49.65;24.13;;;10.30;81.90;;;;;;9168063;19;20018;-66
2023/02/16 17:09:11;;;;;;;42.85;23.42;;;10.30;81.90;;;;;;9163362;19;20088;-65